Portada
METAR-TAF:

METAR-TAF

Aeroports :

Indianàpolis, Indiana, Estats Units d'Amèrica

latitud: 39-49-30N, longitud: 086-17-45W, altitud: 250 m

Observació

L'informe es va fer fa 1 hora i 3 minuts, a les 09:53 UTC
Vent 9 kt del Sud amb ràfegues de 18 kt
Temperatura 24°C
Humitat 65%
Pressió 1008 hPa
Visibilitat: 16.1 km
Cel ennuvolat a una alçada de 4500 ft
Cel ennuvolat a una alçada de 5000 ft

METAR: KEYE 220953Z AUTO 19009G18KT 10SM BKN045 BKN050 24/17 A2977 RMK AO2 LTG DSNT S RAE0859 SLP070 P0000 T02390167

Hora: 06:56 (10:56 UTC)


TAF: manca

Observacions i pronòstics meteorològics de més de 4000 aeroports (METAR i TAF).

Les estacions disponibles són els punts grocs i vermells al mapa.

Posi el ratolí al punt desitjat per veure el nom de l'estació.

Feu clic per veure les observacions i els pronòstics meteorològics.

Per canviar el mapa: feu clic els botons verds amb una creu de color negre per apropar; al botó verd amb un guió per allunyar la imatge; o en les fletxes verdes per a mapes adjacents.


METAR-TAF: